• Join FlightAware (Why Join?)
  • Login
  • US Flag 
03:04PM EDT


 

Airport Tracker/Info


-or-


 

Live Flight TrackerFlight Track Log ✈ SWA4963 ✈ 07-May-2013 ✈ KBWI - KMHT

Flight Track Log - Related Links

Times and Time Zones

All times are in EDT time to prevent confusion due to time zone crossing. See the SWA4963 flight status page for this flight to view local times or setup timezone preferences in your user account.

Time Position Orientation Groundspeed Altitude Reporting Facility
EDT Latitude Longitude Course Direction KTS MPH feet Rate Location/Type
10:11PM 39.1194 -76.6108 270° West 159 183 3,900  Level Washington Center
10:12PM 39.1183 -76.5225 91° East 159 183 5,700 3,360 Climbing Washington Center
10:13PM 39.1333 -76.4319 78° East 216 249 10,600 3,300 Climbing Washington Center
10:14PM 39.1425 -76.3222 84° East 263 303 12,500 2,460 Climbing Washington Center
10:15PM 39.1514 -76.1964 85° East 316 364 15,600 3,360 Climbing Washington Center
10:16PM 39.1667 -76.6363 270° West  Level FlightAware Approximate
10:16PM 39.1731 -76.0494 79° East 361 415 19,200  Level Washington Center
10:17PM 39.1900 -75.9183 80° East 372 428 21,800 2,460 Climbing Washington Center
10:18PM 39.2550 -75.8033 54° Northeast 372 428 24,200 2,220 Climbing Washington Center
10:19PM 39.3383 -75.6936 46° Northeast 393 452 26,300 1,980 Climbing Washington Center
10:20PM 39.4239 -75.5836 45° Northeast 408 470 28,200 1,860 Climbing Washington Center
10:21PM 39.5114 -75.4678 46° Northeast 425 489 30,100 2,160 Climbing Washington Center
10:22PM 39.5967 -75.3572 45° Northeast 430 495 32,600 1,860 Climbing Washington Center
10:24PM 39.7711 -75.1111 47° Northeast 441 507 35,900 1,380 Climbing New York Center
10:25PM 39.8522 -74.9972 47° Northeast 436 502 37,000 540 Climbing New York Center
10:26PM 39.9356 -74.8806 47° Northeast 436 502 37,000  Level New York Center
10:27PM 40.0303 -74.7967 34° Northeast 436 502 37,000  Level New York Center
10:29PM 40.2853 -74.7061 15° North 487 560 37,000  Level Boston Center
10:30PM 40.4069 -74.6639 15° North 458 527 37,000  Level Boston Center
10:31PM 40.5244 -74.6189 16° North 448 516 37,000  Level Boston Center
10:32PM 40.6442 -74.5789 14° North 438 504 37,000  Level Boston Center
10:33PM 40.7594 -74.5336 17° North 438 504 37,000  Level Boston Center
10:34PM 40.8811 -74.4908 15° North 438 504 37,000  Level Boston Center
10:35PM 40.9964 -74.4531 14° North 433 498 37,000  Level Boston Center
10:36PM 41.1119 -74.4100 16° North 433 498 37,000  Level Boston Center
10:37PM 41.2189 -74.3744 14° North 433 498 37,000  Level Boston Center
10:38PM 41.3425 -74.3258 16° North 433 498 37,000  Level Boston Center
10:39PM 41.4558 -74.2847 15° North 428 493 37,000  Level Boston Center
10:40PM 41.5647 -74.2492 14° North 434 499 37,000 -300 Level Boston Center
10:41PM 41.6822 -74.2053 16° North 434 499 36,400 -840 Descending Boston Center
10:42PM 41.8058 -74.1614 15° North 434 499 35,400 -1,320 Descending Boston Center
10:43PM 41.9214 -74.1003 21° North 439 505 33,800 -1,260 Descending Boston Center
10:44PM 41.9919 -73.9736 53° Northeast 410 472 32,900 -900 Descending Boston Center
10:45PM 42.0606 -73.8328 57° Northeast 418 481 32,000 -1,020 Descending Boston Center
10:46PM 42.1267 -73.7025 56° Northeast 449 517 30,900 -2,040 Descending Boston Center
10:47PM 42.1928 -73.5611 58° Northeast 455 524 28,000 -2,760 Descending Boston Center
10:48PM 42.2586 -73.4275 56° Northeast 442 509 25,400 -2,160 Descending Boston Center
10:49PM 42.3264 -73.2908 56° Northeast 420 483 23,700 -1,380 Descending Boston Center
10:50PM 42.3897 -73.1542 58° Northeast 415 478 22,700 -1,020 Descending Boston Center
10:51PM 42.4511 -73.0225 58° Northeast 409 471 21,700 -960 Descending Boston Center
10:52PM 42.5100 -72.8964 58° Northeast 409 471 20,800 -1,020 Descending Boston Center
10:54PM 42.5731 -72.7333 62° Northeast 404 465 19,500 -1,020 Descending Boston Center
10:55PM 42.6108 -72.6150 67° East 386 444 18,600 -1,080 Descending Boston Center
10:56PM 42.6525 -72.4825 67° East 381 438 17,400 -1,800 Descending Boston Center
10:57PM 42.6922 -72.3553 67° East 370 426 15,000 -2,460 Descending Boston Center
10:58PM 42.7317 -72.2197 68° East 358 412 12,500 -2,220 Descending Boston Center
10:59PM 42.7750 -72.1175 60° Northeast 347 399 10,600 -1,500 Descending Boston Center
11:00PM 42.8228 -72.0097 59° Northeast 314 361 9,600 -1,200 Descending Boston Center
11:01PM 42.8578 -71.9303 59° Northeast 277 319 8,300 -1,620 Descending Boston Center
11:02PM 42.8989 -71.8336 60° Northeast 265 305 6,400 -1,800 Descending Boston Center
11:03PM 42.9319 -71.7567 60° Northeast 265 305 4,700 -1,260 Descending Boston Center
11:04PM 42.9708 -71.6625 61° Northeast 265 305 3,900 -900 Descending Boston Center
11:05PM 42.9997 -71.5969 59° Northeast 238 274 3,000 -1,020 Descending Boston Center
11:06PM 43.0344 -71.5169 59° Northeast 225 259 1,900 -660 Descending Boston Center
11:07PM 43.0069 -71.4833 138° Southeast 149 171 1,700 -540 Descending Boston Center
11:08PM 42.9733 -71.4583 151° Southeast 113 130 900 -720 Descending Boston Center
11:09PM 42.9442 -71.4389 154° Southeast 118 136 300 4,020 Descending Boston Center
11:10PM 42.9128 -71.4167 153° Southeast 118 136 9,000 4,320 Climbing Boston Center
11:11PM 42.8811 -71.3944 153° Southeast 118 136 9,000  Level Boston Center